sensor_id;sensor_type;location;lat;lon;timestamp;temperature;humidity
40848;DHT22;26570;50.962;5.340;2023-12-14T03:22:23;8.20;99.90
40848;DHT22;26570;50.962;5.340;2023-12-14T04:07:21;8.20;99.90
40848;DHT22;26570;50.962;5.340;2023-12-14T04:14:19;8.20;99.90
40848;DHT22;26570;50.962;5.340;2023-12-14T04:24:38;8.10;99.90
40848;DHT22;26570;50.962;5.340;2023-12-14T04:32:04;8.10;99.90
40848;DHT22;26570;50.962;5.340;2023-12-14T04:34:59;8.00;99.90
40848;DHT22;26570;50.962;5.340;2023-12-14T04:38:19;8.10;99.90
40848;DHT22;26570;50.962;5.340;2023-12-14T04:41:51;8.30;99.90
40848;DHT22;26570;50.962;5.340;2023-12-14T04:44:50;8.20;99.90
40848;DHT22;26570;50.962;5.340;2023-12-14T04:47:55;7.90;99.90
40848;DHT22;26570;50.962;5.340;2023-12-14T04:51:25;7.70;99.90
40848;DHT22;26570;50.962;5.340;2023-12-14T04:54:21;7.60;99.90
40848;DHT22;26570;50.962;5.340;2023-12-14T05:04:22;7.60;99.90
40848;DHT22;26570;50.962;5.340;2023-12-14T05:07:16;7.70;99.90
40848;DHT22;26570;50.962;5.340;2023-12-14T05:11:05;7.70;99.90
40848;DHT22;26570;50.962;5.340;2023-12-14T05:18:29;7.40;99.90
40848;DHT22;26570;50.962;5.340;2023-12-14T05:21:57;7.50;99.90
40848;DHT22;26570;50.962;5.340;2023-12-14T05:25:18;7.50;99.90
40848;DHT22;26570;50.962;5.340;2023-12-14T05:28:39;7.60;99.90
40848;DHT22;26570;50.962;5.340;2023-12-14T05:31:30;7.60;99.90
40848;DHT22;26570;50.962;5.340;2023-12-14T05:38:31;7.60;99.90
40848;DHT22;26570;50.962;5.340;2023-12-14T05:41:57;7.50;99.90
40848;DHT22;26570;50.962;5.340;2023-12-14T05:45:00;7.60;99.90
40848;DHT22;26570;50.962;5.340;2023-12-14T05:52:21;7.50;99.90
40848;DHT22;26570;50.962;5.340;2023-12-14T05:55:52;7.40;99.90
40848;DHT22;26570;50.962;5.340;2023-12-14T05:58:50;7.50;99.90
40848;DHT22;26570;50.962;5.340;2023-12-14T06:02:10;7.50;99.90
40848;DHT22;26570;50.962;5.340;2023-12-14T06:05:07;7.40;99.90
40848;DHT22;26570;50.962;5.340;2023-12-14T06:08:06;7.30;99.90
40848;DHT22;26570;50.962;5.340;2023-12-14T06:11:06;7.40;99.90
40848;DHT22;26570;50.962;5.340;2023-12-14T06:14:23;7.20;99.90
40848;DHT22;26570;50.962;5.340;2023-12-14T06:17:41;7.30;99.90
40848;DHT22;26570;50.962;5.340;2023-12-14T06:20:33;7.40;99.90
40848;DHT22;26570;50.962;5.340;2023-12-14T06:24:09;7.30;99.90
40848;DHT22;26570;50.962;5.340;2023-12-14T06:27:31;7.30;99.90
40848;DHT22;26570;50.962;5.340;2023-12-14T06:30:53;7.30;99.90
40848;DHT22;26570;50.962;5.340;2023-12-14T06:34:30;7.30;99.90
40848;DHT22;26570;50.962;5.340;2023-12-14T06:44:44;7.20;99.90
40848;DHT22;26570;50.962;5.340;2023-12-14T06:48:11;7.30;99.90
40848;DHT22;26570;50.962;5.340;2023-12-14T06:51:28;7.30;99.90
40848;DHT22;26570;50.962;5.340;2023-12-14T06:58:41;7.30;99.90
40848;DHT22;26570;50.962;5.340;2023-12-14T07:02:33;7.30;99.90
40848;DHT22;26570;50.962;5.340;2023-12-14T07:05:47;7.20;99.90
40848;DHT22;26570;50.962;5.340;2023-12-14T07:08:38;7.30;99.90
40848;DHT22;26570;50.962;5.340;2023-12-14T07:11:58;7.30;99.90
40848;DHT22;26570;50.962;5.340;2023-12-14T07:15:10;7.40;99.90
40848;DHT22;26570;50.962;5.340;2023-12-14T07:18:02;7.60;99.90
40848;DHT22;26570;50.962;5.340;2023-12-14T07:20:52;7.60;99.90
40848;DHT22;26570;50.962;5.340;2023-12-14T07:23:37;7.40;99.90
40848;DHT22;26570;50.962;5.340;2023-12-14T07:26:24;7.40;99.90
40848;DHT22;26570;50.962;5.340;2023-12-14T07:29:13;7.30;99.90
40848;DHT22;26570;50.962;5.340;2023-12-14T07:32:07;7.40;99.90
40848;DHT22;26570;50.962;5.340;2023-12-14T07:35:15;7.40;99.90
40848;DHT22;26570;50.962;5.340;2023-12-14T07:38:00;7.40;99.90
40848;DHT22;26570;50.962;5.340;2023-12-14T07:40:48;7.40;99.90
40848;DHT22;26570;50.962;5.340;2023-12-14T07:43:34;7.30;99.90
40848;DHT22;26570;50.962;5.340;2023-12-14T07:46:20;7.20;99.90
40848;DHT22;26570;50.962;5.340;2023-12-14T07:49:07;7.30;99.90
40848;DHT22;26570;50.962;5.340;2023-12-14T07:51:52;7.40;99.90
40848;DHT22;26570;50.962;5.340;2023-12-14T07:54:38;7.40;99.90
40848;DHT22;26570;50.962;5.340;2023-12-14T07:57:25;7.40;99.90
40848;DHT22;26570;50.962;5.340;2023-12-14T08:00:11;7.50;99.90
40848;DHT22;26570;50.962;5.340;2023-12-14T08:02:56;7.60;99.90
40848;DHT22;26570;50.962;5.340;2023-12-14T08:06:04;7.60;99.90
40848;DHT22;26570;50.962;5.340;2023-12-14T08:08:48;7.40;99.90
40848;DHT22;26570;50.962;5.340;2023-12-14T08:11:57;7.20;99.90
40848;DHT22;26570;50.962;5.340;2023-12-14T08:14:42;7.30;99.90
40848;DHT22;26570;50.962;5.340;2023-12-14T08:17:28;7.30;99.90
40848;DHT22;26570;50.962;5.340;2023-12-14T08:20:16;7.30;99.90
40848;DHT22;26570;50.962;5.340;2023-12-14T08:23:01;7.20;99.90
40848;DHT22;26570;50.962;5.340;2023-12-14T08:26:12;7.40;99.90
40848;DHT22;26570;50.962;5.340;2023-12-14T08:28:58;7.50;99.90
40848;DHT22;26570;50.962;5.340;2023-12-14T08:31:43;7.30;99.90
40848;DHT22;26570;50.962;5.340;2023-12-14T08:34:34;7.40;99.90
40848;DHT22;26570;50.962;5.340;2023-12-14T08:37:19;7.50;99.90
40848;DHT22;26570;50.962;5.340;2023-12-14T08:40:06;7.50;99.90
40848;DHT22;26570;50.962;5.340;2023-12-14T08:42:51;7.50;99.90
40848;DHT22;26570;50.962;5.340;2023-12-14T08:45:39;7.60;99.90
40848;DHT22;26570;50.962;5.340;2023-12-14T08:48:29;7.50;99.90
40848;DHT22;26570;50.962;5.340;2023-12-14T08:51:15;7.60;99.90
40848;DHT22;26570;50.962;5.340;2023-12-14T08:54:03;7.70;99.90
40848;DHT22;26570;50.962;5.340;2023-12-14T08:56:52;7.60;99.90
40848;DHT22;26570;50.962;5.340;2023-12-14T08:59:42;7.60;99.90
40848;DHT22;26570;50.962;5.340;2023-12-14T09:02:35;7.50;99.90
40848;DHT22;26570;50.962;5.340;2023-12-14T09:05:24;7.40;99.90
40848;DHT22;26570;50.962;5.340;2023-12-14T09:08:34;7.40;99.90
40848;DHT22;26570;50.962;5.340;2023-12-14T09:11:19;7.50;99.90
40848;DHT22;26570;50.962;5.340;2023-12-14T09:14:04;7.60;99.90
40848;DHT22;26570;50.962;5.340;2023-12-14T09:17:14;7.50;99.90
40848;DHT22;26570;50.962;5.340;2023-12-14T09:20:29;7.50;99.90
40848;DHT22;26570;50.962;5.340;2023-12-14T09:23:17;7.80;99.90
40848;DHT22;26570;50.962;5.340;2023-12-14T09:26:03;8.00;99.90
40848;DHT22;26570;50.962;5.340;2023-12-14T09:29:11;7.90;99.90
40848;DHT22;26570;50.962;5.340;2023-12-14T09:32:19;7.90;99.90
40848;DHT22;26570;50.962;5.340;2023-12-14T09:35:04;7.80;99.90
40848;DHT22;26570;50.962;5.340;2023-12-14T09:38:13;7.90;99.90
40848;DHT22;26570;50.962;5.340;2023-12-14T09:41:01;8.10;99.90
40848;DHT22;26570;50.962;5.340;2023-12-14T09:43:46;8.10;99.90
40848;DHT22;26570;50.962;5.340;2023-12-14T09:46:36;8.00;99.90
40848;DHT22;26570;50.962;5.340;2023-12-14T09:49:29;8.10;99.90
40848;DHT22;26570;50.962;5.340;2023-12-14T09:52:38;8.30;99.90
40848;DHT22;26570;50.962;5.340;2023-12-14T09:55:26;8.20;99.90
40848;DHT22;26570;50.962;5.340;2023-12-14T09:58:12;8.30;99.90
40848;DHT22;26570;50.962;5.340;2023-12-14T10:00:58;8.00;99.90
40848;DHT22;26570;50.962;5.340;2023-12-14T10:07:33;7.80;99.90
40848;DHT22;26570;50.962;5.340;2023-12-14T10:10:18;8.10;99.90
40848;DHT22;26570;50.962;5.340;2023-12-14T10:13:04;8.10;99.90
40848;DHT22;26570;50.962;5.340;2023-12-14T10:15:52;7.90;99.90
40848;DHT22;26570;50.962;5.340;2023-12-14T10:18:25;7.90;99.90
40848;DHT22;26570;50.962;5.340;2023-12-14T10:21:15;8.10;99.90
40848;DHT22;26570;50.962;5.340;2023-12-14T10:24:26;8.00;99.90
40848;DHT22;26570;50.962;5.340;2023-12-14T10:27:22;7.90;99.90
40848;DHT22;26570;50.962;5.340;2023-12-14T10:30:14;7.80;99.90
40848;DHT22;26570;50.962;5.340;2023-12-14T10:33:00;7.70;99.90
40848;DHT22;26570;50.962;5.340;2023-12-14T10:35:45;7.60;99.90
40848;DHT22;26570;50.962;5.340;2023-12-14T10:38:32;7.60;99.90
40848;DHT22;26570;50.962;5.340;2023-12-14T10:41:21;7.50;99.90
40848;DHT22;26570;50.962;5.340;2023-12-14T10:44:11;7.80;99.90
40848;DHT22;26570;50.962;5.340;2023-12-14T10:47:19;7.90;99.90
40848;DHT22;26570;50.962;5.340;2023-12-14T10:50:05;7.60;99.90
40848;DHT22;26570;50.962;5.340;2023-12-14T10:52:54;7.80;99.90
40848;DHT22;26570;50.962;5.340;2023-12-14T10:55:44;7.90;99.90
40848;DHT22;26570;50.962;5.340;2023-12-14T10:59:02;8.00;99.90
40848;DHT22;26570;50.962;5.340;2023-12-14T11:01:54;8.10;99.90
40848;DHT22;26570;50.962;5.340;2023-12-14T11:05:04;8.30;99.90
40848;DHT22;26570;50.962;5.340;2023-12-14T11:08:20;8.30;99.90
40848;DHT22;26570;50.962;5.340;2023-12-14T11:11:09;8.20;99.90
40848;DHT22;26570;50.962;5.340;2023-12-14T11:14:00;8.10;99.90
40848;DHT22;26570;50.962;5.340;2023-12-14T11:17:10;8.10;99.90
40848;DHT22;26570;50.962;5.340;2023-12-14T11:20:25;8.10;99.90
40848;DHT22;26570;50.962;5.340;2023-12-14T11:23:38;7.80;99.90
40848;DHT22;26570;50.962;5.340;2023-12-14T11:26:25;8.00;99.90
40848;DHT22;26570;50.962;5.340;2023-12-14T11:29:18;8.30;99.90
40848;DHT22;26570;50.962;5.340;2023-12-14T11:32:26;8.10;99.90
40848;DHT22;26570;50.962;5.340;2023-12-14T11:35:37;7.80;99.90
40848;DHT22;26570;50.962;5.340;2023-12-14T11:38:23;7.90;99.90
40848;DHT22;26570;50.962;5.340;2023-12-14T11:41:35;8.00;99.90
40848;DHT22;26570;50.962;5.340;2023-12-14T11:44:29;8.00;99.90
40848;DHT22;26570;50.962;5.340;2023-12-14T11:47:17;8.20;99.90
40848;DHT22;26570;50.962;5.340;2023-12-14T11:50:05;7.90;99.90
40848;DHT22;26570;50.962;5.340;2023-12-14T11:52:50;7.90;99.90
40848;DHT22;26570;50.962;5.340;2023-12-14T11:56:02;8.00;99.90
40848;DHT22;26570;50.962;5.340;2023-12-14T11:58:49;7.90;99.90
40848;DHT22;26570;50.962;5.340;2023-12-14T12:01:35;7.90;99.90
40848;DHT22;26570;50.962;5.340;2023-12-14T12:04:23;8.20;99.90
40848;DHT22;26570;50.962;5.340;2023-12-14T12:07:11;8.10;99.90
40848;DHT22;26570;50.962;5.340;2023-12-14T12:10:02;8.10;99.90
40848;DHT22;26570;50.962;5.340;2023-12-14T12:12:58;8.40;99.90
40848;DHT22;26570;50.962;5.340;2023-12-14T12:15:46;8.30;99.90
40848;DHT22;26570;50.962;5.340;2023-12-14T12:18:34;8.20;99.90
40848;DHT22;26570;50.962;5.340;2023-12-14T12:21:22;7.90;99.90
40848;DHT22;26570;50.962;5.340;2023-12-14T12:24:10;8.00;99.90
40848;DHT22;26570;50.962;5.340;2023-12-14T12:27:17;8.10;99.90
40848;DHT22;26570;50.962;5.340;2023-12-14T12:30:06;8.20;99.90
40848;DHT22;26570;50.962;5.340;2023-12-14T12:32:51;8.30;99.90
40848;DHT22;26570;50.962;5.340;2023-12-14T12:35:36;8.40;99.90
40848;DHT22;26570;50.962;5.340;2023-12-14T12:38:21;8.40;99.90
40848;DHT22;26570;50.962;5.340;2023-12-14T12:41:09;8.40;99.90
40848;DHT22;26570;50.962;5.340;2023-12-14T12:43:56;7.90;99.90
40848;DHT22;26570;50.962;5.340;2023-12-14T12:46:59;8.30;99.90
40848;DHT22;26570;50.962;5.340;2023-12-14T12:49:44;8.40;99.90
40848;DHT22;26570;50.962;5.340;2023-12-14T12:52:30;8.30;99.90
40848;DHT22;26570;50.962;5.340;2023-12-14T12:55:17;8.40;99.90
40848;DHT22;26570;50.962;5.340;2023-12-14T12:58:05;8.40;99.90
40848;DHT22;26570;50.962;5.340;2023-12-14T13:00:54;8.20;99.90
40848;DHT22;26570;50.962;5.340;2023-12-14T13:03:42;8.30;99.90
40848;DHT22;26570;50.962;5.340;2023-12-14T13:06:28;8.00;99.90
40848;DHT22;26570;50.962;5.340;2023-12-14T13:09:16;8.00;99.90
40848;DHT22;26570;50.962;5.340;2023-12-14T13:12:05;8.20;99.90
40848;DHT22;26570;50.962;5.340;2023-12-14T13:14:50;8.50;99.90
40848;DHT22;26570;50.962;5.340;2023-12-14T13:17:35;8.40;99.90
40848;DHT22;26570;50.962;5.340;2023-12-14T13:20:21;8.20;99.90
40848;DHT22;26570;50.962;5.340;2023-12-14T13:23:28;8.30;99.90
40848;DHT22;26570;50.962;5.340;2023-12-14T13:26:15;8.20;99.90
40848;DHT22;26570;50.962;5.340;2023-12-14T13:29:00;8.30;99.90
40848;DHT22;26570;50.962;5.340;2023-12-14T13:31:48;8.20;99.90
40848;DHT22;26570;50.962;5.340;2023-12-14T13:34:55;8.30;99.90
40848;DHT22;26570;50.962;5.340;2023-12-14T13:37:41;8.60;99.90
40848;DHT22;26570;50.962;5.340;2023-12-14T13:40:48;8.70;99.90
40848;DHT22;26570;50.962;5.340;2023-12-14T13:43:33;8.60;99.90
40848;DHT22;26570;50.962;5.340;2023-12-14T13:46:21;8.30;99.90
40848;DHT22;26570;50.962;5.340;2023-12-14T13:49:11;8.10;99.90
40848;DHT22;26570;50.962;5.340;2023-12-14T13:51:57;8.00;99.90
40848;DHT22;26570;50.962;5.340;2023-12-14T13:54:42;8.10;99.90
40848;DHT22;26570;50.962;5.340;2023-12-14T13:57:29;8.50;99.90
40848;DHT22;26570;50.962;5.340;2023-12-14T14:00:15;8.50;99.90
40848;DHT22;26570;50.962;5.340;2023-12-14T14:03:23;8.60;99.90
40848;DHT22;26570;50.962;5.340;2023-12-14T14:06:10;8.60;99.90
40848;DHT22;26570;50.962;5.340;2023-12-14T14:08:58;8.60;99.90
40848;DHT22;26570;50.962;5.340;2023-12-14T14:12:06;8.60;99.90
40848;DHT22;26570;50.962;5.340;2023-12-14T14:14:51;8.80;99.90
40848;DHT22;26570;50.962;5.340;2023-12-14T14:17:58;8.70;99.90
40848;DHT22;26570;50.962;5.340;2023-12-14T14:20:45;8.60;99.90
40848;DHT22;26570;50.962;5.340;2023-12-14T14:23:30;8.60;99.90
40848;DHT22;26570;50.962;5.340;2023-12-14T14:26:15;8.70;99.90
40848;DHT22;26570;50.962;5.340;2023-12-14T14:29:01;8.70;99.90
40848;DHT22;26570;50.962;5.340;2023-12-14T14:31:46;8.90;99.90
40848;DHT22;26570;50.962;5.340;2023-12-14T14:34:54;9.10;99.90
40848;DHT22;26570;50.962;5.340;2023-12-14T14:37:41;9.00;99.90
40848;DHT22;26570;50.962;5.340;2023-12-14T14:40:32;8.70;99.90
40848;DHT22;26570;50.962;5.340;2023-12-14T14:43:40;8.80;99.90
40848;DHT22;26570;50.962;5.340;2023-12-14T14:46:25;8.70;99.90
40848;DHT22;26570;50.962;5.340;2023-12-14T14:49:13;8.60;99.90
40848;DHT22;26570;50.962;5.340;2023-12-14T14:52:01;8.60;99.90
40848;DHT22;26570;50.962;5.340;2023-12-14T14:54:47;8.80;99.90
40848;DHT22;26570;50.962;5.340;2023-12-14T14:58:03;8.70;99.90
40848;DHT22;26570;50.962;5.340;2023-12-14T15:00:48;8.70;99.90
40848;DHT22;26570;50.962;5.340;2023-12-14T15:03:34;8.70;99.90
40848;DHT22;26570;50.962;5.340;2023-12-14T15:06:21;8.60;99.90
40848;DHT22;26570;50.962;5.340;2023-12-14T15:09:08;8.60;99.90
40848;DHT22;26570;50.962;5.340;2023-12-14T15:11:53;8.60;99.90
40848;DHT22;26570;50.962;5.340;2023-12-14T15:15:00;8.70;99.90
40848;DHT22;26570;50.962;5.340;2023-12-14T15:18:08;8.60;99.90
40848;DHT22;26570;50.962;5.340;2023-12-14T15:21:18;8.60;99.90
40848;DHT22;26570;50.962;5.340;2023-12-14T15:24:03;8.60;99.90
40848;DHT22;26570;50.962;5.340;2023-12-14T15:26:51;8.60;99.90
40848;DHT22;26570;50.962;5.340;2023-12-14T15:29:36;8.50;99.90
40848;DHT22;26570;50.962;5.340;2023-12-14T15:32:44;8.60;99.90
40848;DHT22;26570;50.962;5.340;2023-12-14T15:35:54;8.60;99.90
40848;DHT22;26570;50.962;5.340;2023-12-14T15:38:42;8.60;99.90
40848;DHT22;26570;50.962;5.340;2023-12-14T15:41:33;8.60;99.90
40848;DHT22;26570;50.962;5.340;2023-12-14T15:44:21;8.60;99.90
40848;DHT22;26570;50.962;5.340;2023-12-14T15:47:10;8.60;99.90
40848;DHT22;26570;50.962;5.340;2023-12-14T15:50:29;8.50;99.90
40848;DHT22;26570;50.962;5.340;2023-12-14T15:53:23;8.60;99.90
40848;DHT22;26570;50.962;5.340;2023-12-14T15:56:11;8.60;99.90
40848;DHT22;26570;50.962;5.340;2023-12-14T15:59:08;8.60;99.90
40848;DHT22;26570;50.962;5.340;2023-12-14T16:02:01;8.60;99.90
40848;DHT22;26570;50.962;5.340;2023-12-14T16:04:51;8.40;99.90
40848;DHT22;26570;50.962;5.340;2023-12-14T16:07:39;8.40;99.90
40848;DHT22;26570;50.962;5.340;2023-12-14T16:10:24;8.40;99.90
40848;DHT22;26570;50.962;5.340;2023-12-14T16:13:09;8.40;99.90
40848;DHT22;26570;50.962;5.340;2023-12-14T16:16:02;8.60;99.90
40848;DHT22;26570;50.962;5.340;2023-12-14T16:18:48;8.30;99.90
40848;DHT22;26570;50.962;5.340;2023-12-14T16:21:33;8.30;99.90
40848;DHT22;26570;50.962;5.340;2023-12-14T16:24:21;8.40;99.90
40848;DHT22;26570;50.962;5.340;2023-12-14T16:27:07;8.40;99.90
40848;DHT22;26570;50.962;5.340;2023-12-14T16:29:55;8.30;99.90
40848;DHT22;26570;50.962;5.340;2023-12-14T16:32:40;8.30;99.90
40848;DHT22;26570;50.962;5.340;2023-12-14T16:35:36;8.30;99.90
40848;DHT22;26570;50.962;5.340;2023-12-14T16:38:34;8.30;99.90
40848;DHT22;26570;50.962;5.340;2023-12-14T16:41:26;8.30;99.90
40848;DHT22;26570;50.962;5.340;2023-12-14T16:44:16;8.20;99.90
40848;DHT22;26570;50.962;5.340;2023-12-14T16:47:11;8.20;99.90
40848;DHT22;26570;50.962;5.340;2023-12-14T16:50:19;8.40;99.90
40848;DHT22;26570;50.962;5.340;2023-12-14T16:53:04;8.30;99.90
40848;DHT22;26570;50.962;5.340;2023-12-14T16:55:56;8.20;99.90
40848;DHT22;26570;50.962;5.340;2023-12-14T16:58:51;8.10;99.90
40848;DHT22;26570;50.962;5.340;2023-12-14T17:01:36;8.10;99.90
40848;DHT22;26570;50.962;5.340;2023-12-14T17:04:24;8.10;99.90
40848;DHT22;26570;50.962;5.340;2023-12-14T17:07:12;8.10;99.90
40848;DHT22;26570;50.962;5.340;2023-12-14T17:10:02;8.10;99.90
40848;DHT22;26570;50.962;5.340;2023-12-14T17:12:50;8.00;99.90
40848;DHT22;26570;50.962;5.340;2023-12-14T17:15:35;7.90;99.90
40848;DHT22;26570;50.962;5.340;2023-12-14T17:18:23;7.90;99.90
40848;DHT22;26570;50.962;5.340;2023-12-14T17:21:25;7.70;99.90
40848;DHT22;26570;50.962;5.340;2023-12-14T17:24:13;7.70;99.90
40848;DHT22;26570;50.962;5.340;2023-12-14T17:26:59;7.60;99.90
40848;DHT22;26570;50.962;5.340;2023-12-14T17:29:44;7.60;99.90
40848;DHT22;26570;50.962;5.340;2023-12-14T17:32:29;7.60;99.90
40848;DHT22;26570;50.962;5.340;2023-12-14T17:35:17;7.60;99.90
40848;DHT22;26570;50.962;5.340;2023-12-14T17:38:03;7.60;99.90
40848;DHT22;26570;50.962;5.340;2023-12-14T17:40:47;7.60;99.90
40848;DHT22;26570;50.962;5.340;2023-12-14T17:43:33;7.70;99.90
40848;DHT22;26570;50.962;5.340;2023-12-14T17:46:22;7.70;99.90
40848;DHT22;26570;50.962;5.340;2023-12-14T17:49:07;7.80;99.90
40848;DHT22;26570;50.962;5.340;2023-12-14T17:51:54;7.70;99.90
40848;DHT22;26570;50.962;5.340;2023-12-14T17:54:39;7.70;99.90
40848;DHT22;26570;50.962;5.340;2023-12-14T17:57:24;7.70;99.90
40848;DHT22;26570;50.962;5.340;2023-12-14T18:00:10;7.70;99.90
40848;DHT22;26570;50.962;5.340;2023-12-14T18:02:55;7.70;99.90
40848;DHT22;26570;50.962;5.340;2023-12-14T18:05:40;7.80;99.90
40848;DHT22;26570;50.962;5.340;2023-12-14T18:08:26;7.80;99.90
40848;DHT22;26570;50.962;5.340;2023-12-14T18:11:11;7.90;99.90
40848;DHT22;26570;50.962;5.340;2023-12-14T18:13:57;8.00;99.90
40848;DHT22;26570;50.962;5.340;2023-12-14T18:16:42;7.90;99.90
40848;DHT22;26570;50.962;5.340;2023-12-14T18:19:28;8.00;99.90
40848;DHT22;26570;50.962;5.340;2023-12-14T18:22:15;8.00;99.90
40848;DHT22;26570;50.962;5.340;2023-12-14T18:25:00;7.90;99.90
40848;DHT22;26570;50.962;5.340;2023-12-14T18:27:45;7.90;99.90
40848;DHT22;26570;50.962;5.340;2023-12-14T18:30:30;8.00;99.90
40848;DHT22;26570;50.962;5.340;2023-12-14T18:33:14;7.80;99.90
40848;DHT22;26570;50.962;5.340;2023-12-14T18:36:01;7.70;99.90
40848;DHT22;26570;50.962;5.340;2023-12-14T18:38:47;7.70;99.90
40848;DHT22;26570;50.962;5.340;2023-12-14T18:41:32;7.80;99.90
40848;DHT22;26570;50.962;5.340;2023-12-14T18:44:17;7.80;99.90
40848;DHT22;26570;50.962;5.340;2023-12-14T18:47:02;7.80;99.90
40848;DHT22;26570;50.962;5.340;2023-12-14T18:49:47;7.70;99.90
40848;DHT22;26570;50.962;5.340;2023-12-14T18:52:32;7.80;99.90
40848;DHT22;26570;50.962;5.340;2023-12-14T18:55:17;7.70;99.90
40848;DHT22;26570;50.962;5.340;2023-12-14T18:58:06;7.70;99.90
40848;DHT22;26570;50.962;5.340;2023-12-14T19:00:51;7.70;99.90
40848;DHT22;26570;50.962;5.340;2023-12-14T19:03:36;7.70;99.90
40848;DHT22;26570;50.962;5.340;2023-12-14T19:06:23;7.70;99.90
40848;DHT22;26570;50.962;5.340;2023-12-14T19:09:08;7.70;99.90
40848;DHT22;26570;50.962;5.340;2023-12-14T19:11:55;7.70;99.90
40848;DHT22;26570;50.962;5.340;2023-12-14T19:14:40;7.70;99.90
40848;DHT22;26570;50.962;5.340;2023-12-14T19:17:25;7.50;99.90
40848;DHT22;26570;50.962;5.340;2023-12-14T19:20:14;7.40;99.90
40848;DHT22;26570;50.962;5.340;2023-12-14T19:22:59;7.50;99.90
40848;DHT22;26570;50.962;5.340;2023-12-14T19:25:45;7.40;99.90
40848;DHT22;26570;50.962;5.340;2023-12-14T19:28:30;7.30;99.90
40848;DHT22;26570;50.962;5.340;2023-12-14T19:31:15;7.40;99.90
40848;DHT22;26570;50.962;5.340;2023-12-14T19:34:00;7.40;99.90
40848;DHT22;26570;50.962;5.340;2023-12-14T19:36:45;7.30;99.90
40848;DHT22;26570;50.962;5.340;2023-12-14T19:39:30;7.20;99.90
40848;DHT22;26570;50.962;5.340;2023-12-14T19:42:40;7.30;99.90
40848;DHT22;26570;50.962;5.340;2023-12-14T19:45:25;7.30;99.90
40848;DHT22;26570;50.962;5.340;2023-12-14T19:48:13;7.20;99.90
40848;DHT22;26570;50.962;5.340;2023-12-14T19:50:58;7.20;99.90
40848;DHT22;26570;50.962;5.340;2023-12-14T19:53:45;7.30;99.90
40848;DHT22;26570;50.962;5.340;2023-12-14T19:56:30;7.40;99.90
40848;DHT22;26570;50.962;5.340;2023-12-14T19:59:16;7.50;99.90
40848;DHT22;26570;50.962;5.340;2023-12-14T20:02:01;7.50;99.90
40848;DHT22;26570;50.962;5.340;2023-12-14T20:04:47;7.50;99.90
40848;DHT22;26570;50.962;5.340;2023-12-14T20:07:32;7.50;99.90
40848;DHT22;26570;50.962;5.340;2023-12-14T20:10:40;7.50;99.90
40848;DHT22;26570;50.962;5.340;2023-12-14T20:13:25;7.50;99.90
40848;DHT22;26570;50.962;5.340;2023-12-14T20:16:15;7.60;99.90
40848;DHT22;26570;50.962;5.340;2023-12-14T20:19:01;7.60;99.90
40848;DHT22;26570;50.962;5.340;2023-12-14T20:22:08;7.70;99.90
40848;DHT22;26570;50.962;5.340;2023-12-14T20:24:53;7.70;99.90
40848;DHT22;26570;50.962;5.340;2023-12-14T20:27:41;7.70;99.90
40848;DHT22;26570;50.962;5.340;2023-12-14T20:30:26;7.60;99.90
40848;DHT22;26570;50.962;5.340;2023-12-14T20:33:13;7.70;99.90
40848;DHT22;26570;50.962;5.340;2023-12-14T20:36:03;7.90;99.90
40848;DHT22;26570;50.962;5.340;2023-12-14T20:38:48;8.00;99.90
40848;DHT22;26570;50.962;5.340;2023-12-14T20:41:36;7.80;99.90
40848;DHT22;26570;50.962;5.340;2023-12-14T20:44:23;7.80;99.90
40848;DHT22;26570;50.962;5.340;2023-12-14T20:47:08;7.90;99.90
40848;DHT22;26570;50.962;5.340;2023-12-14T20:49:56;7.90;99.90
40848;DHT22;26570;50.962;5.340;2023-12-14T20:52:41;7.80;99.90
40848;DHT22;26570;50.962;5.340;2023-12-14T20:55:30;7.70;99.90
40848;DHT22;26570;50.962;5.340;2023-12-14T20:58:15;7.70;99.90
40848;DHT22;26570;50.962;5.340;2023-12-14T21:01:04;7.70;99.90
40848;DHT22;26570;50.962;5.340;2023-12-14T21:03:52;7.60;99.90
40848;DHT22;26570;50.962;5.340;2023-12-14T21:06:38;7.60;99.90
40848;DHT22;26570;50.962;5.340;2023-12-14T21:09:26;7.70;99.90
40848;DHT22;26570;50.962;5.340;2023-12-14T21:12:11;7.70;99.90
40848;DHT22;26570;50.962;5.340;2023-12-14T21:14:56;7.70;99.90
40848;DHT22;26570;50.962;5.340;2023-12-14T21:17:44;7.80;99.90
40848;DHT22;26570;50.962;5.340;2023-12-14T21:20:32;7.80;99.90
40848;DHT22;26570;50.962;5.340;2023-12-14T21:23:40;7.90;99.90
40848;DHT22;26570;50.962;5.340;2023-12-14T21:26:28;7.90;99.90
40848;DHT22;26570;50.962;5.340;2023-12-14T21:29:23;7.70;99.90
40848;DHT22;26570;50.962;5.340;2023-12-14T21:32:19;7.80;99.90
40848;DHT22;26570;50.962;5.340;2023-12-14T21:35:18;7.80;99.90
40848;DHT22;26570;50.962;5.340;2023-12-14T22:01:38;8.00;99.90
40848;DHT22;26570;50.962;5.340;2023-12-14T22:08:07;8.10;99.90
40848;DHT22;26570;50.962;5.340;2023-12-14T22:11:29;8.10;99.90
40848;DHT22;26570;50.962;5.340;2023-12-14T22:14:30;8.20;99.90
40848;DHT22;26570;50.962;5.340;2023-12-14T22:17:23;8.00;99.90
40848;DHT22;26570;50.962;5.340;2023-12-14T22:20:20;8.10;99.90
40848;DHT22;26570;50.962;5.340;2023-12-14T22:23:48;8.20;99.90
40848;DHT22;26570;50.962;5.340;2023-12-14T22:27:07;8.20;99.90
40848;DHT22;26570;50.962;5.340;2023-12-14T22:30:24;8.30;99.90
40848;DHT22;26570;50.962;5.340;2023-12-14T22:33:17;8.30;99.90
40848;DHT22;26570;50.962;5.340;2023-12-14T22:36:11;8.30;99.90
40848;DHT22;26570;50.962;5.340;2023-12-14T22:39:22;8.20;99.90
40848;DHT22;26570;50.962;5.340;2023-12-14T22:42:32;8.20;99.90
40848;DHT22;26570;50.962;5.340;2023-12-14T22:45:59;8.30;99.90
40848;DHT22;26570;50.962;5.340;2023-12-14T22:49:17;8.10;99.90
40848;DHT22;26570;50.962;5.340;2023-12-14T22:52:02;8.00;99.90
40848;DHT22;26570;50.962;5.340;2023-12-14T22:54:50;8.00;99.90
40848;DHT22;26570;50.962;5.340;2023-12-14T22:57:39;8.10;99.90
40848;DHT22;26570;50.962;5.340;2023-12-14T23:00:26;8.10;99.90
40848;DHT22;26570;50.962;5.340;2023-12-14T23:04:05;8.10;99.90
40848;DHT22;26570;50.962;5.340;2023-12-14T23:07:02;8.20;99.90
40848;DHT22;26570;50.962;5.340;2023-12-14T23:09:48;8.00;99.90
40848;DHT22;26570;50.962;5.340;2023-12-14T23:12:34;7.90;99.90
40848;DHT22;26570;50.962;5.340;2023-12-14T23:15:28;7.90;99.90
40848;DHT22;26570;50.962;5.340;2023-12-14T23:18:13;7.90;99.90
40848;DHT22;26570;50.962;5.340;2023-12-14T23:21:00;7.80;99.90
40848;DHT22;26570;50.962;5.340;2023-12-14T23:23:48;7.90;99.90
40848;DHT22;26570;50.962;5.340;2023-12-14T23:26:36;8.00;99.90
40848;DHT22;26570;50.962;5.340;2023-12-14T23:30:02;7.80;99.90
40848;DHT22;26570;50.962;5.340;2023-12-14T23:32:48;7.70;99.90
40848;DHT22;26570;50.962;5.340;2023-12-14T23:35:46;7.70;99.90
40848;DHT22;26570;50.962;5.340;2023-12-14T23:38:31;7.80;99.90
40848;DHT22;26570;50.962;5.340;2023-12-14T23:41:45;7.70;99.90
40848;DHT22;26570;50.962;5.340;2023-12-14T23:44:58;7.80;99.90
40848;DHT22;26570;50.962;5.340;2023-12-14T23:48:01;7.70;99.90
40848;DHT22;26570;50.962;5.340;2023-12-14T23:50:47;7.80;99.90
40848;DHT22;26570;50.962;5.340;2023-12-14T23:53:32;7.80;99.90
40848;DHT22;26570;50.962;5.340;2023-12-14T23:56:47;7.90;99.90